createdAt,value
2022-12-05T00:01:40.947Z,30.70
2022-12-05T00:04:11.559Z,31.20
2022-12-05T00:06:41.703Z,31.37
2022-12-05T00:09:11.499Z,28.37
2022-12-05T00:11:43.299Z,28.13
2022-12-05T00:14:12.505Z,28.00
2022-12-05T00:16:43.070Z,28.00
2022-12-05T00:19:13.756Z,26.07
2022-12-05T00:21:42.091Z,27.97
2022-12-05T00:24:13.356Z,28.57
2022-12-05T00:26:43.020Z,28.50
2022-12-05T00:29:11.039Z,28.60
2022-12-05T00:31:39.121Z,31.03
2022-12-05T00:34:07.249Z,29.30
2022-12-05T00:36:36.478Z,32.00
2022-12-05T00:39:07.425Z,29.90
2022-12-05T00:41:35.419Z,29.33
2022-12-05T00:44:05.837Z,28.03
2022-12-05T00:46:34.925Z,30.93
2022-12-05T00:49:04.648Z,29.80
2022-12-05T00:51:34.842Z,29.97
2022-12-05T00:54:05.734Z,31.03
2022-12-05T00:56:34.223Z,27.13
2022-12-05T00:59:05.281Z,31.87
2022-12-05T01:01:36.054Z,31.10
2022-12-05T01:04:06.719Z,32.80
2022-12-05T01:06:34.862Z,33.03
2022-12-05T01:09:03.361Z,31.97
2022-12-05T01:11:33.129Z,29.80
2022-12-05T01:14:06.035Z,31.50
2022-12-05T01:16:36.212Z,35.33
2022-12-05T01:19:07.229Z,33.73
2022-12-05T01:21:35.220Z,32.30
2022-12-05T01:24:03.775Z,35.90
2022-12-05T01:26:31.813Z,32.53
2022-12-05T01:28:59.943Z,32.50
2022-12-05T01:31:31.083Z,36.50
2022-12-05T01:34:01.145Z,33.23
2022-12-05T01:36:29.919Z,32.57
2022-12-05T01:38:58.531Z,31.43
2022-12-05T01:41:28.889Z,28.63
2022-12-05T01:44:02.794Z,30.67
2022-12-05T01:46:34.165Z,31.77
2022-12-05T01:49:06.475Z,31.90
2022-12-05T01:51:36.889Z,32.27
2022-12-05T01:54:07.024Z,31.27
2022-12-05T01:56:36.559Z,28.37
2022-12-05T01:59:07.048Z,33.03
2022-12-05T02:01:36.984Z,27.13
2022-12-05T02:04:05.807Z,29.20
2022-12-05T02:06:34.544Z,28.93
2022-12-05T02:09:03.008Z,26.27
2022-12-05T02:11:33.222Z,25.53
2022-12-05T02:14:15.304Z,27.27
2022-12-05T02:16:51.855Z,25.27
2022-12-05T02:19:57.313Z,26.30
2022-12-05T02:22:52.981Z,25.53
2022-12-05T02:25:55.185Z,23.27
2022-12-05T02:28:52.799Z,22.97
2022-12-05T02:31:30.991Z,22.83
2022-12-05T02:34:06.273Z,23.30
2022-12-05T02:36:41.059Z,24.47
2022-12-05T02:39:16.339Z,19.87
2022-12-05T02:41:52.244Z,22.00
2022-12-05T02:44:24.230Z,21.70
2022-12-05T02:46:55.162Z,24.60
2022-12-05T02:49:27.526Z,23.97
2022-12-05T02:52:00.755Z,21.40
2022-12-05T02:54:34.551Z,22.13
2022-12-05T02:57:02.890Z,21.17
2022-12-05T02:59:30.883Z,22.40
2022-12-05T03:02:01.208Z,21.03
2022-12-05T03:04:31.100Z,23.33
2022-12-05T03:07:03.256Z,22.53
2022-12-05T03:09:36.760Z,21.53
2022-12-05T03:12:10.719Z,23.60
2022-12-05T03:14:42.622Z,20.60
2022-12-05T03:17:19.327Z,20.90
2022-12-05T03:19:58.340Z,23.87
2022-12-05T03:22:33.533Z,22.63
2022-12-05T03:25:03.642Z,23.83
2022-12-05T03:27:41.863Z,20.30
2022-12-05T03:30:13.145Z,22.33
2022-12-05T03:32:50.570Z,20.97
2022-12-05T03:35:24.391Z,19.20
2022-12-05T03:37:55.801Z,19.67
2022-12-05T03:40:30.500Z,19.47
2022-12-05T03:43:05.533Z,19.83
2022-12-05T03:45:38.721Z,17.83
2022-12-05T03:48:14.094Z,18.70
2022-12-05T03:50:45.294Z,18.43
2022-12-05T03:53:20.295Z,18.13
2022-12-05T03:55:55.870Z,20.07
2022-12-05T03:58:29.985Z,20.50
2022-12-05T04:01:00.463Z,21.13
2022-12-05T04:03:39.618Z,18.23
2022-12-05T04:06:14.977Z,18.27
2022-12-05T04:08:48.484Z,17.20
2022-12-05T04:11:20.343Z,22.00
2022-12-05T04:13:53.552Z,16.73
2022-12-05T04:16:43.856Z,19.07
2022-12-05T04:19:19.390Z,19.97
2022-12-05T04:21:50.483Z,18.97
2022-12-05T04:24:40.124Z,20.20
2022-12-05T04:27:20.027Z,17.50
2022-12-05T04:29:56.121Z,19.10
2022-12-05T04:32:28.482Z,19.20
2022-12-05T04:35:02.564Z,18.53
2022-12-05T04:37:36.720Z,18.87
2022-12-05T04:40:12.941Z,18.37
2022-12-05T04:42:43.824Z,17.70
2022-12-05T04:45:16.480Z,19.03
2022-12-05T04:47:49.889Z,16.83
2022-12-05T04:50:20.044Z,17.47
2022-12-05T04:52:51.953Z,16.90
2022-12-05T04:55:25.989Z,18.97
2022-12-05T04:58:01.009Z,19.40
2022-12-05T05:00:31.645Z,17.63
2022-12-05T05:03:05.707Z,17.63
2022-12-05T05:05:37.166Z,19.03
2022-12-05T05:08:16.841Z,18.60
2022-12-05T05:10:52.875Z,18.03
2022-12-05T05:13:20.933Z,19.20
2022-12-05T05:15:48.945Z,17.67
2022-12-05T05:18:16.988Z,17.57
2022-12-05T05:20:46.342Z,19.53
2022-12-05T05:23:14.475Z,18.43
2022-12-05T05:25:42.484Z,18.37
2022-12-05T05:28:10.464Z,20.37
2022-12-05T05:30:38.469Z,23.30
2022-12-05T05:33:06.448Z,24.13
2022-12-05T05:35:37.656Z,23.90
2022-12-05T05:38:07.100Z,25.47
2022-12-05T05:40:37.469Z,23.87
2022-12-05T05:43:05.647Z,24.47
2022-12-05T05:45:33.693Z,23.70
2022-12-05T05:48:01.704Z,24.00
2022-12-05T05:50:29.907Z,25.87
2022-12-05T05:52:57.892Z,23.47
2022-12-05T05:55:27.235Z,26.13
2022-12-05T05:57:55.250Z,23.77
2022-12-05T06:00:23.564Z,24.33
2022-12-05T06:02:51.680Z,24.30
2022-12-05T06:05:19.888Z,24.03
2022-12-05T06:07:49.087Z,23.17
2022-12-05T06:10:17.414Z,22.27
2022-12-05T06:12:46.835Z,23.07
2022-12-05T06:15:14.873Z,22.80
2022-12-05T06:17:43.063Z,24.60
2022-12-05T06:20:11.804Z,21.30
2022-12-05T06:22:39.941Z,21.27
2022-12-05T06:25:09.216Z,19.27
2022-12-05T06:27:37.348Z,20.70
2022-12-05T06:30:08.198Z,22.97
2022-12-05T06:32:36.223Z,21.10
2022-12-05T06:35:10.881Z,19.57
2022-12-05T06:37:39.308Z,19.87
2022-12-05T06:40:08.689Z,20.80
2022-12-05T06:42:37.016Z,20.37
2022-12-05T06:45:07.868Z,17.80
2022-12-05T06:47:35.842Z,22.27
2022-12-05T06:50:04.404Z,21.33
2022-12-05T06:52:32.405Z,19.13
2022-12-05T06:55:00.411Z,22.17
2022-12-05T06:57:29.716Z,20.83
2022-12-05T07:00:22.188Z,22.73
2022-12-05T07:02:52.761Z,24.30
2022-12-05T07:05:21.265Z,26.77
2022-12-05T07:07:49.348Z,24.27
2022-12-05T07:10:17.464Z,26.70
2022-12-05T07:12:45.506Z,32.60
2022-12-05T07:15:13.473Z,34.47
2022-12-05T07:17:41.504Z,32.90
2022-12-05T07:20:12.695Z,34.07
2022-12-05T07:22:40.710Z,35.13
2022-12-05T07:25:09.360Z,35.90
2022-12-05T07:27:37.358Z,37.20
2022-12-05T07:30:06.334Z,34.03
2022-12-05T07:32:34.967Z,37.33
2022-12-05T07:35:02.974Z,34.77
2022-12-05T07:37:32.556Z,37.13
2022-12-05T07:40:00.851Z,32.67
2022-12-05T07:42:29.118Z,40.43
2022-12-05T07:44:57.095Z,36.00
2022-12-05T07:47:25.180Z,35.57
2022-12-05T07:49:53.190Z,36.47
2022-12-05T07:52:21.214Z,35.63
2022-12-05T07:54:50.632Z,37.57
2022-12-05T07:57:18.628Z,35.13
2022-12-05T07:59:46.633Z,38.07
2022-12-05T08:02:14.853Z,33.67
2022-12-05T08:04:42.900Z,35.13
2022-12-05T08:07:11.821Z,36.47
2022-12-05T08:09:39.974Z,38.40
2022-12-05T08:12:09.540Z,37.83
2022-12-05T08:14:37.690Z,37.27
2022-12-05T08:17:05.775Z,35.37
2022-12-05T08:19:33.866Z,36.97
2022-12-05T08:22:01.868Z,38.20
2022-12-05T08:24:30.067Z,38.97
2022-12-05T08:26:58.138Z,39.63
2022-12-05T08:29:27.529Z,43.57
2022-12-05T08:31:55.522Z,43.30
2022-12-05T08:34:23.702Z,53.50
2022-12-05T08:36:51.888Z,45.93
2022-12-05T08:39:21.028Z,53.17
2022-12-05T08:41:49.812Z,55.07
2022-12-05T08:44:18.453Z,55.60
2022-12-05T08:46:50.016Z,60.37
2022-12-05T08:49:18.977Z,56.73
2022-12-05T08:51:47.090Z,56.17
2022-12-05T08:54:15.359Z,58.70
2022-12-05T08:56:43.390Z,54.33
2022-12-05T08:59:11.403Z,56.50
2022-12-05T09:01:40.431Z,59.27
2022-12-05T09:04:10.258Z,60.87
2022-12-05T09:06:39.309Z,63.70
2022-12-05T09:09:11.355Z,65.03
2022-12-05T09:11:43.989Z,61.27
2022-12-05T09:14:11.984Z,58.20
2022-12-05T09:16:40.513Z,62.73
2022-12-05T09:19:14.491Z,66.27
2022-12-05T09:21:43.513Z,63.93
2022-12-05T09:24:12.664Z,63.00
2022-12-05T09:26:41.289Z,59.70
2022-12-05T09:29:15.745Z,63.77
2022-12-05T09:31:45.203Z,63.37
2022-12-05T09:34:15.265Z,62.50
2022-12-05T09:36:43.981Z,53.90
2022-12-05T09:39:12.199Z,58.40
2022-12-05T09:42:08.112Z,58.87
2022-12-05T09:44:56.802Z,53.20
2022-12-05T09:47:34.931Z,54.73
2022-12-05T09:50:15.499Z,54.00
2022-12-05T09:52:49.780Z,52.00
2022-12-05T09:55:20.173Z,56.13
2022-12-05T09:57:52.379Z,52.90
2022-12-05T10:00:21.176Z,53.50
2022-12-05T10:03:04.653Z,51.67
2022-12-05T10:05:48.357Z,46.90
2022-12-05T10:08:22.782Z,56.37
2022-12-05T10:11:01.959Z,50.67
2022-12-05T10:13:41.333Z,54.87
2022-12-05T10:16:15.132Z,54.43
2022-12-05T10:18:46.039Z,53.63
2022-12-05T10:21:19.649Z,48.27
2022-12-05T10:23:58.348Z,52.00
2022-12-05T10:26:30.519Z,52.07
2022-12-05T10:29:03.557Z,52.50
2022-12-05T10:31:36.106Z,48.90
2022-12-05T10:34:11.501Z,47.07
2022-12-05T10:36:41.820Z,47.77
2022-12-05T10:39:11.882Z,55.20
2022-12-05T10:41:40.089Z,48.27
2022-12-05T10:44:08.199Z,47.17
2022-12-05T10:46:36.909Z,40.33
2022-12-05T10:49:11.828Z,43.83
2022-12-05T10:51:42.388Z,43.10
2022-12-05T10:54:18.709Z,45.63
2022-12-05T10:56:49.240Z,46.13
2022-12-05T10:59:19.190Z,49.70
2022-12-05T11:01:51.019Z,41.80
2022-12-05T11:04:25.750Z,44.60
2022-12-05T11:06:58.643Z,47.40
2022-12-05T11:09:29.538Z,45.80
2022-12-05T11:12:20.227Z,53.60
2022-12-05T11:15:01.212Z,41.80
2022-12-05T11:17:33.430Z,46.13
2022-12-05T11:20:01.818Z,47.03
2022-12-05T11:22:36.153Z,48.87
2022-12-05T11:25:25.218Z,44.67
2022-12-05T11:27:55.974Z,45.57
2022-12-05T11:30:29.727Z,42.03
2022-12-05T11:33:19.470Z,39.07
2022-12-05T11:35:48.408Z,41.43
2022-12-05T11:38:20.336Z,40.90
2022-12-05T11:40:56.193Z,41.33
2022-12-05T11:43:49.051Z,35.80
2022-12-05T11:46:26.969Z,42.33
2022-12-05T11:49:09.463Z,38.03
2022-12-05T11:51:40.960Z,37.77
2022-12-05T11:55:03.929Z,42.87
2022-12-05T11:57:36.166Z,43.33
2022-12-05T12:00:17.357Z,41.27
2022-12-05T12:03:09.259Z,37.90
2022-12-05T12:05:43.350Z,34.13
2022-12-05T12:08:22.811Z,38.40
2022-12-05T12:11:02.169Z,36.23
2022-12-05T12:13:52.462Z,37.70
2022-12-05T12:16:27.656Z,33.37
2022-12-05T12:19:31.332Z,34.37
2022-12-05T12:22:18.491Z,30.73
2022-12-05T12:25:01.468Z,35.60
2022-12-05T12:27:40.927Z,36.20
2022-12-05T12:30:16.523Z,34.47
2022-12-05T12:32:55.367Z,33.80
2022-12-05T12:35:31.892Z,32.23
2022-12-05T12:38:23.224Z,32.53
2022-12-05T12:40:54.710Z,34.10
2022-12-05T12:43:53.654Z,30.33
2022-12-05T12:46:36.948Z,34.43
2022-12-05T12:49:25.327Z,35.27
2022-12-05T12:51:55.861Z,34.83
2022-12-05T12:57:48.729Z,32.43
2022-12-05T13:00:28.021Z,30.70
2022-12-05T13:03:03.013Z,31.80
2022-12-05T13:05:35.719Z,33.23
2022-12-05T13:08:08.976Z,29.83
2022-12-05T13:10:41.980Z,31.33
2022-12-05T13:13:14.751Z,35.60
2022-12-05T13:15:47.844Z,32.17
2022-12-05T13:18:18.552Z,29.50
2022-12-05T13:20:49.010Z,30.40
2022-12-05T13:23:20.547Z,32.47
2022-12-05T13:25:50.357Z,30.60
2022-12-05T13:28:28.401Z,30.17
2022-12-05T13:31:01.322Z,32.77
2022-12-05T13:33:33.684Z,27.53
2022-12-05T13:36:27.104Z,34.07
2022-12-05T13:39:21.521Z,32.43
2022-12-05T13:42:10.684Z,30.03
2022-12-05T13:44:42.567Z,30.50
2022-12-05T13:47:29.426Z,28.57
2022-12-05T13:50:05.242Z,31.37
2022-12-05T13:52:41.167Z,28.50
2022-12-05T13:55:23.398Z,28.50
2022-12-05T13:57:54.636Z,34.53
2022-12-05T14:00:32.935Z,28.90
2022-12-05T14:03:07.219Z,28.40
2022-12-05T14:05:46.724Z,31.60
2022-12-05T14:08:52.375Z,27.90
2022-12-05T14:11:20.606Z,31.60
2022-12-05T14:13:48.733Z,28.83
2022-12-05T14:16:47.232Z,32.17
2022-12-05T14:19:55.378Z,32.10
2022-12-05T14:22:54.963Z,34.23
2022-12-05T14:25:53.145Z,32.00
2022-12-05T14:28:39.509Z,29.27
2022-12-05T14:31:24.358Z,30.93
2022-12-05T14:34:07.206Z,30.10
2022-12-05T14:36:39.276Z,30.33
2022-12-05T14:39:22.642Z,30.27
2022-12-05T14:41:57.950Z,28.60
2022-12-05T14:44:32.057Z,27.97
2022-12-05T14:47:03.199Z,32.03
2022-12-05T14:49:57.898Z,30.83
2022-12-05T14:52:30.318Z,29.83
2022-12-05T14:55:06.798Z,31.90
2022-12-05T14:57:44.324Z,31.07
2022-12-05T15:00:22.348Z,32.37
2022-12-05T15:02:53.318Z,30.07
2022-12-05T15:05:27.392Z,28.33
2022-12-05T15:07:59.279Z,25.07
2022-12-05T15:10:32.989Z,26.97
2022-12-05T15:13:06.144Z,33.33
2022-12-05T15:15:41.649Z,27.57
2022-12-05T15:18:19.871Z,31.33
2022-12-05T15:20:55.290Z,32.27
2022-12-05T15:23:44.935Z,28.03
2022-12-05T15:29:12.698Z,27.67
2022-12-05T15:31:45.965Z,32.70
2022-12-05T15:34:22.317Z,34.17
2022-12-05T15:36:53.373Z,29.40
2022-12-05T15:39:25.844Z,31.33
2022-12-05T15:41:54.821Z,31.13
2022-12-05T15:44:27.729Z,29.93
2022-12-05T15:46:58.063Z,28.27
2022-12-05T15:49:27.571Z,25.63
2022-12-05T15:52:01.581Z,26.33
2022-12-05T15:54:35.112Z,29.60
2022-12-05T15:57:08.128Z,30.40
2022-12-05T15:59:41.385Z,28.17
2022-12-05T16:02:16.326Z,27.07
2022-12-05T16:04:50.469Z,27.50
2022-12-05T16:07:18.808Z,27.17
2022-12-05T16:09:48.709Z,29.97
2022-12-05T16:12:24.924Z,26.33
2022-12-05T16:15:00.682Z,25.80
2022-12-05T16:17:31.257Z,24.00
2022-12-05T16:20:22.988Z,25.70
2022-12-05T16:22:52.369Z,27.93
2022-12-05T16:25:25.169Z,26.67
2022-12-05T16:28:01.469Z,29.53
2022-12-05T16:30:30.953Z,24.10
2022-12-05T16:33:04.984Z,26.20
2022-12-05T16:35:37.380Z,26.63
2022-12-05T16:38:10.845Z,28.00
2022-12-05T16:40:42.029Z,25.47
2022-12-05T16:43:22.182Z,22.37
2022-12-05T16:45:51.455Z,26.80
2022-12-05T16:48:23.889Z,24.53
2022-12-05T16:50:53.824Z,24.87
2022-12-05T16:53:29.842Z,23.57
2022-12-05T16:55:59.963Z,27.60
2022-12-05T16:58:30.847Z,27.60
2022-12-05T17:01:03.968Z,26.73
2022-12-05T17:03:35.219Z,24.40
2022-12-05T17:06:04.341Z,26.40
2022-12-05T17:08:32.413Z,24.27
2022-12-05T17:11:03.694Z,25.83
2022-12-05T17:13:32.761Z,26.33
2022-12-05T17:16:00.914Z,24.37
2022-12-05T17:18:31.922Z,21.97
2022-12-05T17:21:03.004Z,26.30
2022-12-05T17:23:31.084Z,25.40
2022-12-05T17:26:01.586Z,25.30
2022-12-05T17:28:29.593Z,25.07
2022-12-05T17:30:57.681Z,22.30
2022-12-05T17:33:26.394Z,24.97
2022-12-05T17:35:54.393Z,26.93
2022-12-05T17:38:22.657Z,23.47
2022-12-05T17:40:50.984Z,24.53
2022-12-05T17:43:24.960Z,23.00
2022-12-05T17:45:54.539Z,26.40
2022-12-05T17:48:23.003Z,25.50
2022-12-05T17:50:51.095Z,30.07
2022-12-05T17:53:22.524Z,26.20
2022-12-05T17:55:50.589Z,24.87
2022-12-05T17:58:20.244Z,27.13
2022-12-05T18:00:48.710Z,26.20
2022-12-05T18:03:18.653Z,26.20
2022-12-05T18:05:47.052Z,24.17
2022-12-05T18:08:16.520Z,23.43
2022-12-05T18:10:46.963Z,26.10
2022-12-05T18:13:15.696Z,24.73
2022-12-05T18:15:47.196Z,26.80
2022-12-05T18:18:16.828Z,26.47
2022-12-05T18:20:45.289Z,27.07
2022-12-05T18:23:13.852Z,24.37
2022-12-05T18:25:42.944Z,24.83
2022-12-05T18:28:13.918Z,26.27
2022-12-05T18:30:44.505Z,24.97
2022-12-05T18:33:12.525Z,23.20
2022-12-05T18:35:42.012Z,24.93
2022-12-05T18:38:17.497Z,28.47
2022-12-05T18:40:45.575Z,24.07
2022-12-05T18:43:13.627Z,26.47
2022-12-05T18:45:41.762Z,22.97
2022-12-05T18:48:37.684Z,25.30
2022-12-05T18:51:08.626Z,27.03
2022-12-05T18:53:37.816Z,23.67
2022-12-05T18:56:24.337Z,25.27
2022-12-05T18:58:57.176Z,24.63
2022-12-05T19:01:25.915Z,24.20
2022-12-05T19:03:56.065Z,25.83
2022-12-05T19:06:25.995Z,24.70
2022-12-05T19:08:56.094Z,22.33
2022-12-05T19:11:27.094Z,25.40
2022-12-05T19:13:56.356Z,23.53
2022-12-05T19:16:25.094Z,24.37
2022-12-05T19:18:56.837Z,23.37
2022-12-05T19:21:25.543Z,22.03
2022-12-05T19:23:53.565Z,22.03
2022-12-05T19:26:22.386Z,26.53
2022-12-05T19:28:50.449Z,22.43
2022-12-05T19:31:20.053Z,24.00
2022-12-05T19:33:50.239Z,23.40
2022-12-05T19:36:22.671Z,22.93
2022-12-05T19:38:52.502Z,20.93
2022-12-05T19:41:22.308Z,28.63
2022-12-05T19:43:50.535Z,25.73
2022-12-05T19:46:21.830Z,22.07
2022-12-05T19:48:49.923Z,26.43
2022-12-05T19:51:19.315Z,23.97
2022-12-05T19:53:47.698Z,25.40
2022-12-05T19:56:17.408Z,25.30
2022-12-05T19:58:45.979Z,26.30
2022-12-05T20:01:16.217Z,25.03
2022-12-05T20:03:47.785Z,23.90
2022-12-05T20:06:16.132Z,25.00
2022-12-05T20:08:45.976Z,23.00
2022-12-05T20:11:15.952Z,23.57
2022-12-05T20:13:47.266Z,23.47
2022-12-05T20:16:18.365Z,26.60
2022-12-05T20:18:47.198Z,25.90
2022-12-05T20:21:17.279Z,26.50
2022-12-05T20:23:47.246Z,25.20
2022-12-05T20:26:17.070Z,25.37
2022-12-05T20:28:45.717Z,24.97
2022-12-05T20:31:15.422Z,23.83
2022-12-05T20:33:44.523Z,26.50
2022-12-05T20:36:14.404Z,25.50
2022-12-05T20:38:43.274Z,23.30
2022-12-05T20:41:16.429Z,23.97
2022-12-05T20:43:45.299Z,28.23
2022-12-05T20:46:16.563Z,23.13
2022-12-05T20:48:46.987Z,23.83
2022-12-05T20:51:18.419Z,23.73
2022-12-05T20:53:47.343Z,24.67
2022-12-05T20:56:18.799Z,23.13
2022-12-05T20:58:49.115Z,24.97
2022-12-05T21:01:18.911Z,24.10
2022-12-05T21:03:49.701Z,19.27
2022-12-05T21:06:19.425Z,23.97
2022-12-05T21:08:47.544Z,21.77
2022-12-05T21:11:17.065Z,21.23
2022-12-05T21:13:46.090Z,25.63
2022-12-05T21:16:16.479Z,21.90
2022-12-05T21:18:45.339Z,21.57
2022-12-05T21:21:15.542Z,24.10
2022-12-05T21:23:43.804Z,22.30
2022-12-05T21:26:13.903Z,21.90
2022-12-05T21:28:44.460Z,21.20
2022-12-05T21:31:14.489Z,22.63
2022-12-05T21:33:44.103Z,23.87
2022-12-05T21:36:12.087Z,24.57
2022-12-05T21:38:40.246Z,24.93
2022-12-05T21:41:08.268Z,25.37
2022-12-05T21:43:37.288Z,21.80
2022-12-05T21:46:07.436Z,24.23
2022-12-05T21:48:36.111Z,26.57
2022-12-05T21:51:06.841Z,24.53
2022-12-05T21:53:34.977Z,22.57
2022-12-05T21:56:05.119Z,21.00
2022-12-05T21:58:35.055Z,22.30
2022-12-05T22:01:06.436Z,18.80
2022-12-05T22:03:34.492Z,22.63
2022-12-05T22:06:03.613Z,24.37
2022-12-05T22:08:32.612Z,23.60
2022-12-05T22:11:08.072Z,20.87
2022-12-05T22:13:36.140Z,22.07
2022-12-05T22:16:06.587Z,23.07
2022-12-05T22:18:35.272Z,23.20
2022-12-05T22:21:05.619Z,20.80
2022-12-05T22:23:34.599Z,23.97
2022-12-05T22:26:05.268Z,23.80
2022-12-05T22:28:33.914Z,23.00
2022-12-05T22:31:04.333Z,25.27
2022-12-05T22:33:35.708Z,19.00
2022-12-05T22:36:05.064Z,20.23
2022-12-05T22:38:35.060Z,22.87
2022-12-05T22:41:06.378Z,17.23
2022-12-05T22:43:36.259Z,19.63
2022-12-05T22:46:05.710Z,18.77
2022-12-05T22:48:35.773Z,19.67
2022-12-05T22:51:06.201Z,18.53
2022-12-05T22:53:35.312Z,19.30
2022-12-05T22:56:05.244Z,19.23
2022-12-05T22:58:33.591Z,16.33
2022-12-05T23:01:10.397Z,17.77
2022-12-05T23:03:40.193Z,17.77
2022-12-05T23:06:11.987Z,11.80
2022-12-05T23:08:41.076Z,10.60
2022-12-05T23:11:10.168Z,12.37
2022-12-05T23:13:38.610Z,8.70
2022-12-05T23:16:08.206Z,7.83
2022-12-05T23:18:46.532Z,5.13
2022-12-05T23:21:19.058Z,7.13
2022-12-05T23:23:47.412Z,5.00
2022-12-05T23:26:15.988Z,6.37
2022-12-05T23:28:44.886Z,7.20
2022-12-05T23:31:13.469Z,4.80
2022-12-05T23:33:41.962Z,6.40
2022-12-05T23:36:11.367Z,5.30
2022-12-05T23:38:42.318Z,5.83
2022-12-05T23:41:13.176Z,7.43
2022-12-05T23:43:42.272Z,6.63
2022-12-05T23:46:11.847Z,6.03
2022-12-05T23:48:40.463Z,6.07
2022-12-05T23:51:10.909Z,7.03
2022-12-05T23:53:41.852Z,7.20
2022-12-05T23:56:11.747Z,7.03
2022-12-05T23:58:40.171Z,6.63
